FIN87J EFHK-EHAM
Flight info
| Callsign | FIN87J |
|---|---|
| Flight time | N/A |
| Altitude | 35000 |
| Route | VALOX Y117 ROSAX DCT KESUR DCT BLUFA |
| Aircraft | A359/H-SDE2E3GHIJ3J4J5LM1ORWXY/LB1D1 |
Departure
| Time | 2026-04-24 11:58 |
|---|---|
| Airport | Helsinki Vantaa Airport (EFHK) |
Arrival
| Time | N/A |
|---|---|
| Airport | Amsterdam Airport Schiphol (EHAM) |
| Time | Latitude | Longitude | Altitude | Speed | Heading |
|---|---|---|---|---|---|
| 2026-04-24 11:45 | 60.33074 | 24.95527 | 170 ft | 0 kts | 317° |
| 2026-04-24 11:48 | 60.33077 | 24.95521 | 170 ft | 0 kts | 317° |
| 2026-04-24 11:48 | 60.33096 | 24.95483 | 172 ft | 13 kts | 311° |
| 2026-04-24 11:49 | 60.33111 | 24.95316 | 178 ft | 10 kts | 300° |
| 2026-04-24 11:49 | 60.33161 | 24.95286 | 180 ft | 13 kts | 6° |
| 2026-04-24 11:49 | 60.33200 | 24.95499 | 172 ft | 27 kts | 107° |
| 2026-04-24 11:49 | 60.33020 | 24.95832 | 160 ft | 26 kts | 149° |
| 2026-04-24 11:50 | 60.32906 | 24.96003 | 158 ft | 1 kts | 101° |
| 2026-04-24 11:50 | 60.32929 | 24.96101 | 157 ft | 15 kts | 44° |
| 2026-04-24 11:50 | 60.32990 | 24.96377 | 154 ft | 18 kts | 67° |
| 2026-04-24 11:50 | 60.32970 | 24.96513 | 156 ft | 16 kts | 135° |
| 2026-04-24 11:51 | 60.32925 | 24.96559 | 159 ft | 0 kts | 156° |
| 2026-04-24 11:57 | 60.32873 | 24.96610 | 161 ft | 44 kts | 154° |
| 2026-04-24 11:57 | 60.32200 | 24.97299 | 177 ft | 169 kts | 153° |
| 2026-04-24 11:58 | 60.30971 | 24.98523 | 1014 ft | 215 kts | 156° |
| 2026-04-24 11:58 | 60.29359 | 24.98893 | 2050 ft | 263 kts | 191° |
| 2026-04-24 11:58 | 60.27542 | 24.97205 | 2848 ft | 316 kts | 219° |
| 2026-04-24 11:58 | 60.25068 | 24.93295 | 3804 ft | 350 kts | 220° |
| 2026-04-24 11:59 | 60.23856 | 24.91068 | 3946 ft | 349 kts | 232° |
| 2026-04-24 11:59 | 60.22553 | 24.85429 | 4144 ft | 332 kts | 262° |
| 2026-04-24 11:59 | 60.22264 | 24.82337 | 4176 ft | 335 kts | 261° |
| 2026-04-24 11:59 | 60.21393 | 24.77925 | 4275 ft | 346 kts | 241° |
| 2026-04-24 12:00 | 60.19781 | 24.74338 | 4652 ft | 347 kts | 223° |
| 2026-04-24 12:00 | 60.17898 | 24.71317 | 4965 ft | 347 kts | 220° |
| 2026-04-24 12:00 | 60.15974 | 24.68364 | 5171 ft | 349 kts | 220° |